Impacts TAF Board
For situational awareness. Not to be used for flight planning purposes.
IDs:

KMIA - Miami Intl, FL, US

Issued at 0526 UTC 25 Apr 2019
Updated at 0850 UTC 25 Apr 2019
Potential Impact None Slight Moderate High
Time<<25/21Z 25/22Z 25/23Z 26/00Z 26/01Z 26/02Z 26/03Z 26/04Z 26/05Z 26/06Z 26/07Z 26/08Z 26/09Z>>
Type PRVL PRVL PRVL PRVL PRVL PRVL PRVL PRVL PRVL PRVL PRVL PRVL PRVL
VIS >6 >6 >6 >6 >6 >6 >6 >6 >6 >6 >6 >6 >6
CIG -- -- -- -- -- -- -- -- -- -- -- -- --
Cover SCT SCT SCT SCT SCT SCT SCT SCT SCT SCT SCT SCT SCT
FltCat VFR VFR VFR VFR VFR VFR VFR VFR VFR VFR VFR VFR VFR
WX -- -- -- -- -- -- -- -- -- -- -- -- --
WDir 150 150 150 150 VRB VRB VRB VRB VRB VRB VRB VRB VRB
WSpd 10 10 10 10 5 5 5 5 5 5 5 5 5
WGst -- -- -- -- -- -- -- -- -- -- -- -- --
Raw TAF
KMIA 250526Z 2506/2612 VRB05KT P6SM FEW040
  FM251400 15010KT P6SM SCT040
  FM260100 VRB05KT P6SM SCT035


METAR Board
Radar Display
Forecast Discussion
For situational awareness. Not to be used for flight planning purposes.